createdAt,value
2023-02-18T00:01:31.506Z,1.70
2023-02-18T00:04:01.837Z,1.90
2023-02-18T00:06:34.509Z,1.58
2023-02-18T00:09:05.108Z,1.70
2023-02-18T00:11:34.535Z,1.95
2023-02-18T00:14:08.944Z,1.63
2023-02-18T00:16:40.013Z,1.30
2023-02-18T00:19:12.258Z,1.33
2023-02-18T00:21:41.413Z,0.90
2023-02-18T00:24:10.717Z,1.45
2023-02-18T00:26:37.578Z,1.17
2023-02-18T00:29:04.717Z,1.10
2023-02-18T00:31:37.069Z,1.13
2023-02-18T00:34:05.540Z,0.93
2023-02-18T00:36:37.842Z,1.63
2023-02-18T00:39:07.422Z,1.73
2023-02-18T00:41:39.323Z,3.55
2023-02-18T00:44:06.350Z,11.40
2023-02-18T00:46:33.468Z,6.37
2023-02-18T00:49:02.272Z,2.75
2023-02-18T00:51:31.611Z,5.00
2023-02-18T00:53:58.188Z,8.75
2023-02-18T00:56:26.975Z,6.88
2023-02-18T00:58:55.903Z,4.33
2023-02-18T01:01:22.548Z,3.33
2023-02-18T01:03:50.336Z,3.47
2023-02-18T01:06:17.006Z,3.53
2023-02-18T01:08:43.710Z,3.40
2023-02-18T01:11:14.525Z,3.30
2023-02-18T01:13:41.879Z,3.47
2023-02-18T01:16:12.056Z,3.10
2023-02-18T01:18:41.604Z,3.10
2023-02-18T01:21:11.887Z,2.97
2023-02-18T01:23:40.234Z,2.90
2023-02-18T01:26:10.361Z,3.65
2023-02-18T01:28:37.163Z,3.22
2023-02-18T01:31:09.459Z,3.38
2023-02-18T01:33:36.545Z,3.47
2023-02-18T01:36:06.094Z,3.70
2023-02-18T01:38:32.787Z,3.40
2023-02-18T01:41:01.977Z,3.63
2023-02-18T01:43:28.642Z,3.45
2023-02-18T01:46:17.293Z,3.47
2023-02-18T01:48:51.813Z,3.07
2023-02-18T01:51:40.255Z,3.45
2023-02-18T01:54:15.928Z,3.28
2023-02-18T01:56:44.449Z,3.70
2023-02-18T01:59:16.726Z,4.10
2023-02-18T02:01:49.544Z,3.57
2023-02-18T02:04:18.674Z,3.80
2023-02-18T02:06:45.198Z,3.50
2023-02-18T02:09:15.042Z,3.80
2023-02-18T02:11:41.516Z,3.63
2023-02-18T02:14:36.005Z,3.40
2023-02-18T02:17:19.494Z,3.40
2023-02-18T02:20:34.501Z,3.35
2023-02-18T02:23:07.047Z,3.50
2023-02-18T02:25:39.026Z,3.78
2023-02-18T02:28:14.792Z,3.83
2023-02-18T02:31:02.163Z,3.83
2023-02-18T02:34:06.749Z,3.47
2023-02-18T02:36:55.960Z,3.90
2023-02-18T02:39:45.237Z,3.67
2023-02-18T02:42:35.394Z,3.17
2023-02-18T02:45:10.401Z,3.72
2023-02-18T02:47:39.807Z,3.70
2023-02-18T02:50:28.597Z,4.35
2023-02-18T02:53:02.290Z,4.10
2023-02-18T02:55:31.146Z,3.60
2023-02-18T02:58:02.318Z,3.90
2023-02-18T03:00:54.911Z,3.80
2023-02-18T03:03:33.340Z,4.00
2023-02-18T03:06:08.361Z,4.45
2023-02-18T03:08:41.881Z,4.10
2023-02-18T03:11:17.763Z,4.20
2023-02-18T03:14:12.167Z,4.18
2023-02-18T03:16:44.701Z,4.38
2023-02-18T03:19:22.668Z,3.90
2023-02-18T03:21:56.728Z,3.60
2023-02-18T03:24:32.079Z,3.95
2023-02-18T03:27:09.759Z,3.85
2023-02-18T03:29:37.054Z,3.05
2023-02-18T03:32:09.855Z,3.38
2023-02-18T03:34:45.931Z,3.63
2023-02-18T03:37:14.375Z,3.33
2023-02-18T03:39:44.609Z,4.00
2023-02-18T03:42:11.344Z,3.45
2023-02-18T03:44:40.210Z,3.75
2023-02-18T03:47:08.972Z,3.40
2023-02-18T03:49:37.867Z,3.78
2023-02-18T03:52:04.627Z,3.55
2023-02-18T03:54:33.646Z,3.45
2023-02-18T03:57:02.572Z,3.58
2023-02-18T03:59:29.170Z,3.40
2023-02-18T04:01:58.042Z,3.45
2023-02-18T04:04:24.815Z,4.05
2023-02-18T04:06:53.704Z,3.90
2023-02-18T04:09:20.276Z,3.97
2023-02-18T04:11:49.509Z,4.30
2023-02-18T04:14:18.507Z,3.65
2023-02-18T04:16:47.714Z,3.83
2023-02-18T04:19:18.739Z,3.78
2023-02-18T04:21:47.798Z,4.32
2023-02-18T04:24:14.555Z,3.63
2023-02-18T04:26:43.232Z,4.40
2023-02-18T04:29:10.916Z,4.40
2023-02-18T04:31:37.664Z,4.65
2023-02-18T04:34:04.883Z,4.03
2023-02-18T04:36:34.191Z,3.93
2023-02-18T04:39:00.734Z,4.40
2023-02-18T04:41:29.357Z,4.53
2023-02-18T04:43:55.969Z,5.38
2023-02-18T04:46:24.055Z,4.30
2023-02-18T04:48:50.696Z,4.80
2023-02-18T04:51:19.766Z,4.53
2023-02-18T04:53:49.346Z,4.95
2023-02-18T04:56:18.174Z,4.70
2023-02-18T04:58:46.979Z,4.47
2023-02-18T05:01:13.678Z,4.47
2023-02-18T05:03:40.301Z,4.78
2023-02-18T05:06:07.456Z,4.70
2023-02-18T05:08:38.975Z,4.93
2023-02-18T05:11:07.528Z,4.43
2023-02-18T05:13:34.426Z,4.37
2023-02-18T05:16:03.407Z,4.43
2023-02-18T05:18:30.001Z,4.85
2023-02-18T05:20:58.858Z,5.07
2023-02-18T05:23:32.676Z,5.05
2023-02-18T05:26:01.527Z,4.57
2023-02-18T05:28:32.778Z,4.55
2023-02-18T05:31:04.254Z,4.25
2023-02-18T05:33:30.970Z,4.88
2023-02-18T05:35:59.889Z,4.32
2023-02-18T05:38:28.699Z,4.63
2023-02-18T05:40:56.116Z,5.10
2023-02-18T05:43:22.636Z,4.72
2023-02-18T05:45:49.208Z,4.80
2023-02-18T05:48:15.849Z,4.80
2023-02-18T05:50:42.530Z,4.83
2023-02-18T05:53:09.065Z,4.45
2023-02-18T05:55:39.289Z,5.30
2023-02-18T05:58:06.691Z,4.95
2023-02-18T06:00:35.726Z,4.70
2023-02-18T06:03:04.525Z,5.40
2023-02-18T06:05:31.215Z,4.80
2023-02-18T06:07:57.776Z,4.88
2023-02-18T06:10:24.325Z,4.95
2023-02-18T06:12:53.928Z,5.30
2023-02-18T06:15:20.460Z,5.23
2023-02-18T06:17:46.989Z,4.97
2023-02-18T06:20:15.782Z,5.30
2023-02-18T06:22:42.312Z,5.20
2023-02-18T06:25:08.992Z,4.97
2023-02-18T06:27:35.512Z,5.30
2023-02-18T06:30:04.412Z,5.13
2023-02-18T06:32:33.062Z,5.93
2023-02-18T06:34:59.635Z,6.00
2023-02-18T06:37:26.247Z,5.45
2023-02-18T06:39:52.802Z,6.70
2023-02-18T06:42:19.378Z,7.13
2023-02-18T06:44:45.918Z,7.13
2023-02-18T06:47:12.477Z,7.03
2023-02-18T06:49:41.295Z,7.05
2023-02-18T06:52:07.946Z,5.63
2023-02-18T06:54:34.596Z,5.07
2023-02-18T06:57:01.164Z,5.28
2023-02-18T06:59:27.755Z,6.72
2023-02-18T07:01:56.772Z,6.95
2023-02-18T07:04:25.684Z,5.67
2023-02-18T07:06:52.206Z,4.97
2023-02-18T07:09:21.257Z,5.10
2023-02-18T07:11:48.049Z,5.63
2023-02-18T07:14:16.828Z,5.70
2023-02-18T07:16:45.699Z,5.03
2023-02-18T07:19:17.291Z,5.15
2023-02-18T07:21:43.896Z,5.10
2023-02-18T07:24:10.447Z,6.28
2023-02-18T07:26:39.229Z,5.85
2023-02-18T07:29:10.699Z,4.50
2023-02-18T07:31:38.748Z,5.05
2023-02-18T07:34:07.944Z,5.47
2023-02-18T07:36:38.345Z,5.18
2023-02-18T07:39:05.081Z,5.00
2023-02-18T07:41:31.782Z,5.17
2023-02-18T07:43:58.321Z,4.75
2023-02-18T07:46:29.706Z,4.82
2023-02-18T07:49:02.621Z,4.60
2023-02-18T07:51:29.153Z,4.88
2023-02-18T07:53:58.228Z,5.10
2023-02-18T07:56:27.244Z,6.45
2023-02-18T07:58:53.853Z,5.38
2023-02-18T08:01:24.881Z,5.55
2023-02-18T08:03:54.183Z,4.88
2023-02-18T08:06:33.926Z,5.07
2023-02-18T08:09:00.630Z,5.28
2023-02-18T08:11:27.210Z,4.43
2023-02-18T08:13:53.848Z,5.07
2023-02-18T08:16:21.734Z,4.63
2023-02-18T08:18:51.712Z,5.00
2023-02-18T08:21:20.472Z,4.90
2023-02-18T08:23:47.513Z,5.05
2023-02-18T08:26:14.663Z,4.40
2023-02-18T08:28:43.732Z,4.90
2023-02-18T08:31:18.949Z,4.43
2023-02-18T08:33:45.587Z,4.88
2023-02-18T08:36:12.134Z,4.60
2023-02-18T08:38:38.857Z,5.00
2023-02-18T08:41:08.128Z,4.82
2023-02-18T08:43:37.780Z,4.30
2023-02-18T08:46:04.657Z,4.68
2023-02-18T08:48:31.784Z,4.72
2023-02-18T08:50:58.725Z,4.47
2023-02-18T08:53:30.096Z,4.82
2023-02-18T08:55:59.163Z,5.53
2023-02-18T08:58:28.085Z,4.78
2023-02-18T09:01:02.158Z,4.35
2023-02-18T09:03:31.250Z,4.80
2023-02-18T09:06:01.655Z,4.45
2023-02-18T09:08:33.399Z,4.30
2023-02-18T09:11:04.463Z,4.35
2023-02-18T09:13:32.897Z,4.00
2023-02-18T09:16:08.303Z,4.60
2023-02-18T09:18:36.072Z,4.22
2023-02-18T09:21:04.054Z,4.13
2023-02-18T09:23:34.181Z,4.05
2023-02-18T09:26:03.872Z,3.92
2023-02-18T09:28:30.437Z,3.92
2023-02-18T09:31:06.837Z,4.38
2023-02-18T09:33:37.825Z,3.90
2023-02-18T09:36:05.160Z,3.83
2023-02-18T09:38:36.743Z,4.50
2023-02-18T09:41:09.157Z,3.92
2023-02-18T09:43:51.613Z,3.97
2023-02-18T09:46:24.119Z,4.83
2023-02-18T09:48:52.078Z,4.28
2023-02-18T09:51:20.182Z,3.90
2023-02-18T09:53:47.488Z,4.40
2023-02-18T09:56:28.275Z,4.10
2023-02-18T09:58:58.678Z,3.70
2023-02-18T10:01:31.595Z,4.80
2023-02-18T10:04:03.617Z,4.05
2023-02-18T10:06:33.423Z,3.83
2023-02-18T10:09:04.824Z,4.43
2023-02-18T10:11:44.277Z,3.83
2023-02-18T10:14:15.475Z,3.40
2023-02-18T10:16:44.254Z,3.75
2023-02-18T10:19:35.670Z,3.53
2023-02-18T10:22:09.605Z,3.53
2023-02-18T10:24:48.256Z,3.43
2023-02-18T10:27:37.171Z,3.60
2023-02-18T10:30:16.035Z,3.33
2023-02-18T10:32:45.918Z,3.30
2023-02-18T10:35:37.528Z,3.47
2023-02-18T10:38:17.091Z,2.70
2023-02-18T10:41:00.010Z,3.05
2023-02-18T10:43:26.730Z,4.32
2023-02-18T10:46:04.963Z,3.08
2023-02-18T10:48:50.040Z,2.90
2023-02-18T10:51:24.258Z,3.07
2023-02-18T10:53:54.261Z,3.10
2023-02-18T10:56:40.706Z,2.67
2023-02-18T10:59:11.663Z,2.90
2023-02-18T11:01:44.207Z,3.20
2023-02-18T11:04:17.980Z,2.70
2023-02-18T11:06:52.612Z,2.70
2023-02-18T11:09:30.111Z,2.83
2023-02-18T11:12:08.994Z,2.78
2023-02-18T11:14:44.607Z,2.90
2023-02-18T11:17:28.780Z,2.60
2023-02-18T11:19:58.222Z,2.40
2023-02-18T11:22:33.158Z,2.17
2023-02-18T11:25:02.659Z,1.30
2023-02-18T11:27:42.298Z,1.90
2023-02-18T11:30:31.060Z,2.10
2023-02-18T11:33:03.215Z,0.70
2023-02-18T11:35:32.823Z,0.80
2023-02-18T11:38:02.529Z,0.70
2023-02-18T11:40:31.449Z,1.05
2023-02-18T11:43:14.910Z,1.53
2023-02-18T11:45:44.513Z,1.50
2023-02-18T11:48:18.985Z,1.67
2023-02-18T11:50:50.355Z,1.80
2023-02-18T11:53:29.612Z,1.30
2023-02-18T11:56:01.298Z,1.77
2023-02-18T11:58:37.273Z,2.33
2023-02-18T12:01:15.588Z,2.28
2023-02-18T12:03:53.880Z,2.10
2023-02-18T12:06:39.398Z,1.73
2023-02-18T12:09:18.656Z,1.70
2023-02-18T12:11:55.242Z,1.55
2023-02-18T12:14:24.026Z,1.70
2023-02-18T12:16:53.816Z,2.35
2023-02-18T12:19:45.061Z,1.60
2023-02-18T12:22:41.975Z,2.17
2023-02-18T12:25:17.553Z,1.90
2023-02-18T12:28:05.503Z,1.95
2023-02-18T12:30:59.290Z,1.48
2023-02-18T12:33:46.660Z,1.08
2023-02-18T12:36:28.763Z,1.20
2023-02-18T12:39:13.787Z,0.95
2023-02-18T12:42:08.372Z,1.10
2023-02-18T12:45:13.528Z,1.10
2023-02-18T12:48:02.987Z,1.13
2023-02-18T12:50:51.011Z,1.03
2023-02-18T12:53:23.588Z,1.33
2023-02-18T12:56:18.099Z,1.42
2023-02-18T12:58:55.614Z,1.67
2023-02-18T13:01:41.110Z,1.10
2023-02-18T13:04:24.280Z,1.27
2023-02-18T13:07:02.735Z,1.50
2023-02-18T13:09:48.921Z,1.02
2023-02-18T13:12:30.759Z,1.45
2023-02-18T13:15:16.265Z,1.50
2023-02-18T13:17:44.104Z,1.00
2023-02-18T13:20:26.281Z,1.23
2023-02-18T13:22:59.018Z,2.53
2023-02-18T13:25:27.836Z,1.40
2023-02-18T13:28:18.004Z,1.40
2023-02-18T13:31:02.699Z,1.60
2023-02-18T13:33:35.728Z,1.20
2023-02-18T13:36:08.414Z,1.20
2023-02-18T13:38:53.094Z,1.30
2023-02-18T13:41:23.430Z,1.20
2023-02-18T13:43:50.068Z,1.17
2023-02-18T13:46:19.849Z,0.82
2023-02-18T13:48:54.092Z,0.90
2023-02-18T13:51:36.432Z,0.50
2023-02-18T13:54:12.035Z,0.70
2023-02-18T13:56:51.036Z,0.50
2023-02-18T13:59:37.059Z,0.50
2023-02-18T14:02:22.635Z,0.50
2023-02-18T14:04:54.862Z,0.50
2023-02-18T14:07:35.995Z,0.60
2023-02-18T14:10:12.670Z,0.80
2023-02-18T14:13:00.467Z,0.60
2023-02-18T14:15:29.588Z,0.80
2023-02-18T14:17:59.141Z,0.90
2023-02-18T14:20:44.556Z,0.70
2023-02-18T14:23:20.490Z,0.50
2023-02-18T14:26:25.761Z,0.60
2023-02-18T14:29:00.301Z,0.70
2023-02-18T14:31:52.456Z,0.60
2023-02-18T14:35:05.367Z,0.57
2023-02-18T14:37:43.176Z,0.50
2023-02-18T14:40:26.570Z,0.60
2023-02-18T14:43:14.790Z,0.50
2023-02-18T14:46:08.586Z,0.50
2023-02-18T14:48:42.905Z,0.50
2023-02-18T14:51:13.533Z,0.47
2023-02-18T14:53:45.167Z,0.60
2023-02-18T14:56:16.411Z,0.45
2023-02-18T14:58:48.369Z,0.60
2023-02-18T15:01:35.759Z,0.50
2023-02-18T15:04:04.806Z,0.50
2023-02-18T15:06:33.077Z,0.60
2023-02-18T15:09:23.421Z,0.50
2023-02-18T15:11:57.921Z,0.70
2023-02-18T15:14:36.292Z,0.50
2023-02-18T15:17:04.002Z,0.43
2023-02-18T15:19:42.982Z,0.50
2023-02-18T15:22:31.695Z,0.55
2023-02-18T15:25:00.735Z,0.68
2023-02-18T15:27:34.373Z,0.93
2023-02-18T15:30:13.407Z,1.00
2023-02-18T15:32:48.942Z,0.60
2023-02-18T15:35:19.674Z,0.55
2023-02-18T15:37:51.784Z,0.40
2023-02-18T15:40:27.285Z,0.50
2023-02-18T15:42:59.383Z,0.50
2023-02-18T15:45:50.564Z,0.50
2023-02-18T15:48:24.993Z,0.60
2023-02-18T15:50:55.607Z,0.40
2023-02-18T15:53:27.282Z,0.63
2023-02-18T15:55:57.525Z,0.73
2023-02-18T15:58:29.616Z,0.50
2023-02-18T16:00:59.594Z,0.47
2023-02-18T16:03:50.796Z,0.50
2023-02-18T16:06:30.672Z,0.60
2023-02-18T16:09:04.210Z,0.40
2023-02-18T16:11:48.667Z,0.50
2023-02-18T16:14:31.592Z,0.68
2023-02-18T16:17:13.376Z,7.85
2023-02-18T16:20:01.653Z,1.25
2023-02-18T16:22:36.219Z,0.60
2023-02-18T16:25:21.201Z,0.60
2023-02-18T16:27:47.838Z,1.00
2023-02-18T16:30:19.841Z,0.70
2023-02-18T16:32:48.793Z,0.80
2023-02-18T16:35:18.039Z,0.73
2023-02-18T16:37:46.418Z,2.15
2023-02-18T16:40:30.511Z,1.40
2023-02-18T16:43:04.884Z,1.33
2023-02-18T16:45:37.998Z,0.60
2023-02-18T16:48:05.617Z,0.60
2023-02-18T16:50:35.472Z,0.50
2023-02-18T16:53:04.783Z,0.60
2023-02-18T16:55:31.376Z,0.65
2023-02-18T16:57:58.437Z,0.50
2023-02-18T17:00:25.055Z,0.50
2023-02-18T17:02:56.664Z,0.60
2023-02-18T17:05:28.561Z,0.60
2023-02-18T17:07:58.462Z,0.43
2023-02-18T17:10:25.170Z,0.55
2023-02-18T17:12:51.729Z,0.60
2023-02-18T17:15:34.505Z,1.23
2023-02-18T17:18:02.036Z,1.58
2023-02-18T17:20:32.663Z,0.70
2023-02-18T17:22:59.772Z,0.60
2023-02-18T17:25:39.189Z,0.80
2023-02-18T17:28:08.750Z,0.60
2023-02-18T17:30:41.415Z,0.60
2023-02-18T17:33:11.832Z,0.90
2023-02-18T17:35:38.377Z,0.75
2023-02-18T17:38:10.996Z,0.60
2023-02-18T17:40:39.794Z,0.65
2023-02-18T17:43:14.686Z,0.70
2023-02-18T17:45:51.356Z,0.50
2023-02-18T17:48:18.006Z,0.73
2023-02-18T17:50:44.566Z,0.70
2023-02-18T17:53:17.488Z,0.70
2023-02-18T17:55:45.946Z,0.60
2023-02-18T17:58:13.734Z,0.98
2023-02-18T18:00:46.913Z,0.80
2023-02-18T18:03:14.097Z,0.90
2023-02-18T18:05:43.123Z,0.70
2023-02-18T18:08:12.320Z,0.52
2023-02-18T18:10:55.996Z,0.88
2023-02-18T18:13:25.887Z,0.75
2023-02-18T18:15:57.945Z,0.63
2023-02-18T18:18:27.480Z,0.60
2023-02-18T18:21:01.531Z,0.73
2023-02-18T18:23:32.761Z,0.90
2023-02-18T18:26:00.021Z,1.13
2023-02-18T18:28:27.740Z,3.40
2023-02-18T18:30:55.983Z,1.00
2023-02-18T18:33:29.133Z,0.88
2023-02-18T18:35:58.029Z,0.93
2023-02-18T18:38:26.933Z,0.63
2023-02-18T18:40:57.286Z,1.40
2023-02-18T18:43:23.795Z,0.70
2023-02-18T18:45:53.153Z,0.65
2023-02-18T18:48:23.673Z,0.82
2023-02-18T18:50:52.536Z,1.20
2023-02-18T18:53:25.378Z,0.73
2023-02-18T18:55:57.680Z,0.90
2023-02-18T18:58:25.011Z,0.70
2023-02-18T19:00:56.981Z,0.65
2023-02-18T19:03:25.418Z,0.70
2023-02-18T19:05:52.836Z,0.70
2023-02-18T19:08:20.437Z,0.73
2023-02-18T19:10:54.518Z,0.60
2023-02-18T19:13:30.694Z,0.70
2023-02-18T19:16:12.113Z,0.70
2023-02-18T19:18:38.997Z,0.73
2023-02-18T19:21:05.754Z,0.70
2023-02-18T19:23:33.876Z,0.80
2023-02-18T19:26:00.827Z,0.50
2023-02-18T19:28:27.930Z,0.80
2023-02-18T19:30:57.044Z,4.47
2023-02-18T19:33:23.693Z,1.10
2023-02-18T19:35:50.315Z,0.70
2023-02-18T19:38:18.482Z,2.25
2023-02-18T19:40:46.165Z,2.88
2023-02-18T19:43:15.068Z,1.10
2023-02-18T19:45:46.880Z,0.85
2023-02-18T19:48:15.011Z,0.82
2023-02-18T19:50:42.833Z,0.73
2023-02-18T19:53:11.992Z,1.10
2023-02-18T19:55:43.119Z,0.80
2023-02-18T19:58:12.104Z,0.90
2023-02-18T20:00:40.531Z,0.75
2023-02-18T20:03:07.090Z,1.38
2023-02-18T20:05:37.939Z,0.65
2023-02-18T20:08:04.556Z,0.77
2023-02-18T20:10:31.224Z,0.90
2023-02-18T20:12:57.748Z,0.77
2023-02-18T20:15:25.825Z,0.65
2023-02-18T20:17:52.637Z,0.82
2023-02-18T20:20:21.679Z,0.80
2023-02-18T20:22:50.488Z,0.60
2023-02-18T20:25:17.075Z,0.90
2023-02-18T20:27:59.469Z,0.90
2023-02-18T20:30:29.167Z,0.55
2023-02-18T20:32:55.785Z,0.80
2023-02-18T20:35:22.372Z,0.63
2023-02-18T20:37:51.442Z,0.50
2023-02-18T20:40:18.179Z,0.82
2023-02-18T20:42:46.951Z,2.10
2023-02-18T20:45:13.682Z,0.90
2023-02-18T20:47:40.216Z,0.70
2023-02-18T20:50:07.173Z,0.95
2023-02-18T20:52:34.875Z,0.90
2023-02-18T20:55:01.648Z,0.55
2023-02-18T20:57:28.271Z,0.87
2023-02-18T20:59:58.386Z,0.75
2023-02-18T21:02:25.129Z,0.70
2023-02-18T21:04:54.182Z,0.80
2023-02-18T21:07:22.328Z,0.95
2023-02-18T21:09:51.481Z,1.00
2023-02-18T21:12:20.362Z,0.65
2023-02-18T21:14:49.371Z,0.70
2023-02-18T21:17:15.906Z,0.73
2023-02-18T21:19:44.679Z,1.02
2023-02-18T21:22:13.397Z,0.83
2023-02-18T21:24:39.940Z,0.73
2023-02-18T21:27:06.631Z,0.95
2023-02-18T21:29:36.138Z,0.80
2023-02-18T21:32:02.826Z,0.70
2023-02-18T21:34:29.424Z,0.90
2023-02-18T21:36:58.183Z,0.80
2023-02-18T21:39:27.264Z,0.90
2023-02-18T21:41:59.810Z,0.70
2023-02-18T21:44:41.209Z,0.82
2023-02-18T21:47:13.446Z,0.77
2023-02-18T21:49:40.061Z,1.00
2023-02-18T21:52:08.886Z,0.70
2023-02-18T21:54:40.738Z,0.82
2023-02-18T21:57:11.753Z,0.82
2023-02-18T21:59:41.473Z,0.80
2023-02-18T22:02:14.860Z,1.00
2023-02-18T22:04:41.532Z,0.75
2023-02-18T22:07:15.279Z,0.90
2023-02-18T22:09:42.019Z,1.23
2023-02-18T22:12:11.934Z,0.80
2023-02-18T22:14:39.154Z,0.93
2023-02-18T22:17:06.391Z,0.68
2023-02-18T22:19:33.013Z,0.80
2023-02-18T22:22:00.522Z,1.08
2023-02-18T22:24:27.412Z,0.80
2023-02-18T22:26:56.355Z,0.90
2023-02-18T22:29:23.224Z,0.70
2023-02-18T22:31:53.505Z,0.80
2023-02-18T22:34:21.501Z,0.90
2023-02-18T22:36:50.978Z,1.10
2023-02-18T22:39:17.900Z,1.05
2023-02-18T22:41:46.879Z,1.15
2023-02-18T22:44:17.756Z,1.30
2023-02-18T22:46:45.177Z,1.48
2023-02-18T22:49:14.550Z,1.30
2023-02-18T22:51:50.370Z,1.33
2023-02-18T22:54:19.702Z,1.30
2023-02-18T22:56:49.033Z,1.13
2023-02-18T22:59:17.884Z,1.20
2023-02-18T23:01:49.439Z,1.43
2023-02-18T23:04:20.735Z,1.00
2023-02-18T23:06:50.885Z,1.35
2023-02-18T23:09:25.525Z,1.25
2023-02-18T23:11:53.721Z,1.30
2023-02-18T23:14:24.235Z,1.13
2023-02-18T23:17:11.807Z,1.38
2023-02-18T23:19:42.410Z,1.10
2023-02-18T23:22:13.585Z,1.25
2023-02-18T23:24:44.830Z,0.90
2023-02-18T23:27:14.229Z,1.40
2023-02-18T23:29:43.271Z,1.20
2023-02-18T23:32:15.566Z,1.38
2023-02-18T23:34:42.498Z,1.35
2023-02-18T23:37:13.724Z,1.15
2023-02-18T23:39:47.648Z,1.40
2023-02-18T23:42:15.222Z,1.27
2023-02-18T23:44:43.891Z,1.10
2023-02-18T23:47:10.440Z,1.20
2023-02-18T23:49:36.974Z,1.30
2023-02-18T23:52:03.633Z,1.50
2023-02-18T23:54:30.205Z,1.02
2023-02-18T23:56:59.056Z,1.60
2023-02-18T23:59:30.417Z,1.60
